Flight Track Log - Related Links

Times and Time Zones

All times are in EDT time to prevent confusion due to time zone crossing. See the N534QS flight status page for this flight to view local times or setup timezone preferences in your user account.

Time Position Orientation Groundspeed Altitude Reporting Facility
EDT Latitude Longitude Course Direction KTS MPH feet Rate Location/Type
Sun 12:20:00 PM 53.9885 -18.8473 288° West  Level Estimated
Sun 12:21:00 PM 53.9953 -19.0557 273° West  Level Estimated
Sun 12:22:00 PM 54.0017 -19.2642 273° West  Level Estimated
Sun 12:23:00 PM 54.0078 -19.4727 273° West  Level Estimated
Sun 12:24:00 PM 54.0135 -19.6813 273° West  Level Estimated
Sun 12:25:00 PM 54.0188 -19.8899 273° West  Level Estimated
Sun 12:26:00 PM 54.0238 -20.0986 272° West  Level Estimated
Sun 12:27:00 PM 54.0285 -20.3074 272° West  Level Estimated
Sun 12:28:00 PM 54.0327 -20.5149 272° West  Level Estimated
Sun 12:29:00 PM 54.0366 -20.7225 272° West  Level Estimated
Sun 12:30:00 PM 54.0401 -20.9302 272° West  Level Estimated
Sun 12:31:00 PM 54.0433 -21.1378 272° West  Level Estimated
Sun 12:32:00 PM 54.0461 -21.3455 271° West  Level Estimated
Sun 12:33:00 PM 54.0485 -21.5533 271° West  Level Estimated
Sun 12:34:00 PM 54.0506 -21.7610 271° West  Level Estimated
Sun 12:35:00 PM 54.0523 -21.9688 271° West  Level Estimated
Sun 12:35:00 PM 50.0000 -20.0000 274° West 444 511 43,000  Level ETMS Enhanced Traffic Management System
Sun 12:36:00 PM 54.0537 -22.1766 271° West  Level Estimated
Sun 12:37:00 PM 54.0547 -22.3844 271° West  Level Estimated
Sun 12:38:00 PM 54.0554 -22.5922 270° West  Level Estimated
Sun 12:39:00 PM 54.0557 -22.8000 270° West  Level Estimated
Sun 12:40:00 PM 54.0556 -23.0078 270° West  Level Estimated
Sun 12:41:00 PM 50.0615 -21.7280 273° West 444 511 43,000  Level FlightAware Transoceanic
Sun 12:42:00 PM 50.0668 -21.9202 272° West 444 511 43,000  Level FlightAware Transoceanic
Sun 12:43:00 PM 50.0717 -22.1125 272° West 444 511 43,000  Level FlightAware Transoceanic
Sun 12:44:00 PM 50.0763 -22.3048 272° West 444 511 43,000  Level FlightAware Transoceanic
Sun 12:45:00 PM 50.0806 -22.4972 272° West 444 511 43,000  Level FlightAware Transoceanic
Sun 12:46:00 PM 50.0846 -22.6896 272° West 444 511 43,000  Level FlightAware Transoceanic
Sun 12:47:00 PM 50.0883 -22.8820 272° West 444 511 43,000  Level FlightAware Transoceanic
Sun 12:48:00 PM 50.0916 -23.0745 271° West 444 511 43,000  Level FlightAware Transoceanic
Sun 12:49:00 PM 50.0946 -23.2670 271° West 444 511 43,000  Level FlightAware Transoceanic
Sun 12:50:00 PM 50.0973 -23.4595 271° West 444 511 43,000  Level FlightAware Transoceanic
Sun 12:51:00 PM 50.0997 -23.6520 271° West 444 511 43,000  Level FlightAware Transoceanic
Sun 12:52:00 PM 50.1018 -23.8445 271° West 444 511 43,000  Level FlightAware Transoceanic
Sun 12:53:00 PM 50.1035 -24.0371 271° West 444 511 43,000  Level FlightAware Transoceanic
Sun 12:54:00 PM 50.1050 -24.2297 271° West 444 511 43,000  Level FlightAware Transoceanic
Sun 12:55:00 PM 50.1061 -24.4222 270° West 444 511 43,000  Level FlightAware Transoceanic
Sun 12:56:00 PM 50.1069 -24.6148 270° West 444 511 43,000  Level FlightAware Transoceanic
Sun 12:57:00 PM 50.1074 -24.8074 270° West 444 511 43,000  Level FlightAware Transoceanic
Sun 12:58:00 PM 50.1075 -25.0000 270° West 444 511 43,000  Level FlightAware Transoceanic
Sun 12:59:00 PM 50.1074 -25.1926 270° West 444 511 43,000  Level FlightAware Transoceanic
Sun 01:00:00 PM 50.1069 -25.3852 270° West 444 511 43,000  Level FlightAware Transoceanic
Sun 01:01:00 PM 50.1061 -25.5778 270° West 444 511 43,000  Level FlightAware Transoceanic
Sun 01:02:00 PM 50.1050 -25.7703 269° West 444 511 43,000  Level FlightAware Transoceanic
Sun 01:03:00 PM 50.1035 -25.9629 269° West 444 511 43,000  Level FlightAware Transoceanic
Sun 01:04:00 PM 50.1018 -26.1555 269° West 444 511 43,000  Level FlightAware Transoceanic
Sun 01:05:00 PM 50.0997 -26.3480 269° West 444 511 43,000  Level FlightAware Transoceanic
Sun 01:06:00 PM 50.0973 -26.5405 269° West 444 511 43,000  Level FlightAware Transoceanic
Sun 01:07:00 PM 50.0946 -26.7330 269° West 444 511 43,000  Level FlightAware Transoceanic
Sun 01:08:00 PM 50.0916 -26.9255 269° West 444 511 43,000  Level FlightAware Transoceanic
Sun 01:09:00 PM 50.0883 -27.1180 268° West 444 511 43,000  Level FlightAware Transoceanic
Sun 01:10:00 PM 50.0846 -27.3104 268° West 444 511 43,000  Level FlightAware Transoceanic
Sun 01:11:00 PM 50.0806 -27.5028 268° West 444 511 43,000  Level FlightAware Transoceanic
Sun 01:12:00 PM 50.0763 -27.6952 268° West 444 511 43,000  Level FlightAware Transoceanic
Sun 01:13:00 PM 50.0717 -27.8875 268° West 444 511 43,000  Level FlightAware Transoceanic
Sun 01:14:00 PM 50.0668 -28.0798 268° West 444 511 43,000  Level FlightAware Transoceanic
Sun 01:15:00 PM 50.0615 -28.2720 267° West 444 511 43,000  Level FlightAware Transoceanic
Sun 01:16:00 PM 50.0560 -28.4642 267° West 444 511 43,000  Level FlightAware Transoceanic
Sun 01:17:00 PM 50.0501 -28.6564 267° West 444 511 43,000  Level FlightAware Transoceanic
Sun 01:18:00 PM 50.0439 -28.8485 267° West 444 511 43,000  Level FlightAware Transoceanic
Sun 01:19:00 PM 50.0373 -29.0406 267° West 444 511 43,000  Level FlightAware Transoceanic
Sun 01:20:00 PM 50.0305 -29.2326 267° West 444 511 43,000  Level FlightAware Transoceanic
Sun 01:21:00 PM 50.0234 -29.4245 267° West 444 511 43,000  Level FlightAware Transoceanic
Sun 01:22:00 PM 50.0159 -29.6164 266° West 444 511 43,000  Level FlightAware Transoceanic
Sun 01:23:00 PM 50.0081 -29.8082 266° West 444 511 43,000  Level FlightAware Transoceanic
Sun 01:24:00 PM 50.0001 -29.9976 266° West  Level FlightAware Approximate
Sun 01:25:00 PM 49.9920 -30.1870 266° West  Level FlightAware Approximate
Sun 01:26:00 PM 49.9728 -30.1801 257° West  Level FlightAware Approximate
Sun 01:27:00 PM 49.9447 -30.3646 257° West  Level FlightAware Approximate
Sun 01:28:00 PM 49.9162 -30.5488 257° West  Level FlightAware Approximate
Sun 01:29:00 PM 49.8875 -30.7329 256° West  Level FlightAware Approximate
Sun 01:30:00 PM 49.8585 -30.9167 256° West  Level FlightAware Approximate
Sun 01:30:00 PM 50.0000 -30.0000 257° West 456 525 43,000  Level ETMS Enhanced Traffic Management System
Sun 01:31:00 PM 49.8292 -31.1004 256° West  Level FlightAware Approximate
Sun 01:32:00 PM 49.7995 -31.2838 256° West  Level FlightAware Approximate
Sun 01:33:00 PM 49.7696 -31.4669 256° West  Level FlightAware Approximate
Sun 01:34:00 PM 49.7395 -31.6499 256° West  Level FlightAware Approximate
Sun 01:35:00 PM 49.7090 -31.8326 256° West  Level FlightAware Approximate
Sun 01:36:00 PM 49.5986 -32.4791 255° West 456 525 43,000  Level FlightAware Transoceanic
Sun 01:37:00 PM 49.5655 -32.6681 255° West 456 525 43,000  Level FlightAware Transoceanic
Sun 01:38:00 PM 49.5321 -32.8568 255° West 456 525 43,000  Level FlightAware Transoceanic
Sun 01:39:00 PM 49.4985 -33.0452 255° West 456 525 43,000  Level FlightAware Transoceanic
Sun 01:40:00 PM 49.4645 -33.2334 254° West 456 525 43,000  Level FlightAware Transoceanic
Sun 01:41:00 PM 49.4302 -33.4214 254° West 456 525 43,000  Level FlightAware Transoceanic
Sun 01:42:00 PM 49.3956 -33.6090 254° West 456 525 43,000  Level FlightAware Transoceanic
Sun 01:43:00 PM 49.3607 -33.7964 254° West 456 525 43,000  Level FlightAware Transoceanic
Sun 01:44:00 PM 49.3255 -33.9836 254° West 456 525 43,000  Level FlightAware Transoceanic
Sun 01:45:00 PM 49.2901 -34.1704 254° West 456 525 43,000  Level FlightAware Transoceanic
Sun 01:46:00 PM 49.2542 -34.3570 254° West 456 525 43,000  Level FlightAware Transoceanic
Sun 01:47:00 PM 49.2182 -34.5433 253° West 456 525 43,000  Level FlightAware Transoceanic
Sun 01:48:00 PM 49.1818 -34.7294 253° West 456 525 43,000  Level FlightAware Transoceanic
Sun 01:49:00 PM 49.1451 -34.9152 253° West 456 525 43,000  Level FlightAware Transoceanic
Sun 01:50:00 PM 49.1081 -35.1007 253° West 456 525 43,000  Level FlightAware Transoceanic
Sun 01:51:00 PM 49.0708 -35.2859 253° West 456 525 43,000  Level FlightAware Transoceanic
Sun 01:52:00 PM 49.0332 -35.4708 253° West 456 525 43,000  Level FlightAware Transoceanic
Sun 01:53:00 PM 48.9953 -35.6555 253° West 456 525 43,000  Level FlightAware Transoceanic
Sun 01:54:00 PM 48.9572 -35.8399 252° West 456 525 43,000  Level FlightAware Transoceanic
Sun 01:55:00 PM 48.9187 -36.0240 252° West 456 525 43,000  Level FlightAware Transoceanic
Sun 01:56:00 PM 48.8800 -36.2078 252° West 456 525 43,000  Level FlightAware Transoceanic
Sun 01:57:00 PM 48.8409 -36.3913 252° West 456 525 43,000  Level FlightAware Transoceanic
Sun 01:58:00 PM 48.8016 -36.5745 252° West 456 525 43,000  Level FlightAware Transoceanic
Sun 01:59:00 PM 48.7619 -36.7575 252° West 456 525 43,000  Level FlightAware Transoceanic
Sun 02:00:00 PM 48.7220 -36.9402 252° West 456 525 43,000  Level FlightAware Transoceanic
Sun 02:01:00 PM 48.6818 -37.1225 251° West 456 525 43,000  Level FlightAware Transoceanic
Sun 02:02:00 PM 48.6413 -37.3046 251° West 456 525 43,000  Level FlightAware Transoceanic
Sun 02:03:00 PM 48.6005 -37.4864 251° West 456 525 43,000  Level FlightAware Transoceanic
Sun 02:04:00 PM 48.5595 -37.6679 251° West 456 525 43,000  Level FlightAware Transoceanic
Sun 02:05:00 PM 48.5181 -37.8491 251° West 456 525 43,000  Level FlightAware Transoceanic
Sun 02:06:00 PM 48.4765 -38.0300 251° West 456 525 43,000  Level FlightAware Transoceanic
Sun 02:07:00 PM 48.4346 -38.2106 251° West 456 525 43,000  Level FlightAware Transoceanic
Sun 02:08:00 PM 48.3923 -38.3909 251° West 456 525 43,000  Level FlightAware Transoceanic
Sun 02:09:00 PM 48.3499 -38.5709 250° West 456 525 43,000  Level FlightAware Transoceanic
Sun 02:10:00 PM 48.3071 -38.7506 250° West 456 525 43,000  Level FlightAware Transoceanic
Sun 02:11:00 PM 48.2641 -38.9300 250° West 456 525 43,000  Level FlightAware Transoceanic
Sun 02:12:00 PM 48.2207 -39.1091 250° West 456 525 43,000  Level FlightAware Transoceanic
Sun 02:13:00 PM 48.1772 -39.2879 250° West 456 525 43,000  Level FlightAware Transoceanic
Sun 02:14:00 PM 48.1333 -39.4664 250° West 456 525 43,000  Level FlightAware Transoceanic
Sun 02:15:00 PM 48.0891 -39.6446 250° West 456 525 43,000  Level FlightAware Transoceanic
Sun 02:16:00 PM 48.0447 -39.8224 249° West 456 525 43,000  Level FlightAware Transoceanic
Sun 02:17:00 PM 48.0017 -39.9931 249° West  Level FlightAware Approximate
Sun 02:18:00 PM 47.9584 -40.1635 249° West  Level FlightAware Approximate
Sun 02:19:00 PM 47.9903 -40.1670 265° West  Level FlightAware Approximate
Sun 02:20:00 PM 47.9796 -40.3485 265° West  Level FlightAware Approximate
Sun 02:20:00 PM 48.0000 -40.0000 265° West 463 533 43,000  Level ETMS Enhanced Traffic Management System
Sun 02:21:00 PM 47.9685 -40.5300 265° West  Level FlightAware Approximate
Sun 02:22:00 PM 47.9571 -40.7114 265° West  Level FlightAware Approximate
Sun 02:23:00 PM 47.9455 -40.8927 265° West  Level FlightAware Approximate
Sun 02:24:00 PM 47.9336 -41.0739 264° West  Level FlightAware Approximate
Sun 02:25:00 PM 47.9214 -41.2550 264° West  Level FlightAware Approximate
Sun 02:26:00 PM 47.8784 -41.9136 264° West 463 533 43,000  Level FlightAware Transoceanic
Sun 02:27:00 PM 47.8645 -42.1044 264° West 463 533 43,000  Level FlightAware Transoceanic
Sun 02:28:00 PM 47.8503 -42.2951 264° West 463 533 43,000  Level FlightAware Transoceanic
Sun 02:29:00 PM 47.8357 -42.4857 263° West 463 533 43,000  Level FlightAware Transoceanic
Sun 02:30:00 PM 47.8209 -42.6763 263° West 463 533 43,000  Level FlightAware Transoceanic
Sun 02:31:00 PM 47.8057 -42.8667 263° West 463 533 43,000  Level FlightAware Transoceanic
Sun 02:32:00 PM 47.7902 -43.0570 263° West 463 533 43,000  Level FlightAware Transoceanic
Sun 02:33:00 PM 47.7744 -43.2471 263° West 463 533 43,000  Level FlightAware Transoceanic
Sun 02:34:00 PM 47.7583 -43.4372 263° West 463 533 43,000  Level FlightAware Transoceanic
Sun 02:35:00 PM 47.7419 -43.6272 263° West 463 533 43,000  Level FlightAware Transoceanic
Sun 02:36:00 PM 47.7252 -43.8170 262° West 463 533 43,000  Level FlightAware Transoceanic
Sun 02:37:00 PM 47.7081 -44.0067 262° West 463 533 43,000  Level FlightAware Transoceanic
Sun 02:38:00 PM 47.6908 -44.1963 262° West 463 533 43,000  Level FlightAware Transoceanic
Sun 02:39:00 PM 47.6731 -44.3857 262° West 463 533 43,000  Level FlightAware Transoceanic
Sun 02:40:00 PM 47.6551 -44.5750 262° West 463 533 43,000  Level FlightAware Transoceanic
Sun 02:41:00 PM 47.6368 -44.7642 262° West 463 533 43,000  Level FlightAware Transoceanic
Sun 02:42:00 PM 47.6182 -44.9533 262° West 463 533 43,000  Level FlightAware Transoceanic
Sun 02:43:00 PM 47.5993 -45.1422 261° West 463 533 43,000  Level FlightAware Transoceanic
Sun 02:44:00 PM 47.5801 -45.3310 261° West 463 533 43,000  Level FlightAware Transoceanic
Sun 02:45:00 PM 47.5605 -45.5196 261° West 463 533 43,000  Level FlightAware Transoceanic
Sun 02:46:00 PM 47.5407 -45.7081 261° West 463 533 43,000  Level FlightAware Transoceanic
Sun 02:47:00 PM 47.5205 -45.8965 261° West 463 533 43,000  Level FlightAware Transoceanic
Sun 02:48:00 PM 47.5000 -46.0847 261° West 463 533 43,000  Level FlightAware Transoceanic
Sun 02:49:00 PM 47.4793 -46.2727 261° West 463 533 43,000  Level FlightAware Transoceanic
Sun 02:50:00 PM 47.4582 -46.4606 261° West 463 533 43,000  Level FlightAware Transoceanic
Sun 02:51:00 PM 47.4368 -46.6484 260° West 463 533 43,000  Level FlightAware Transoceanic
Sun 02:52:00 PM 47.4151 -46.8360 260° West 463 533 43,000  Level FlightAware Transoceanic
Sun 02:53:00 PM 47.3931 -47.0235 260° West 463 533 43,000  Level FlightAware Transoceanic
Sun 02:54:00 PM 47.3708 -47.2108 260° West 463 533 43,000  Level FlightAware Transoceanic
Sun 02:55:00 PM 47.3482 -47.3979 260° West 463 533 43,000  Level FlightAware Transoceanic
Sun 02:56:00 PM 47.3253 -47.5849 260° West 463 533 43,000  Level FlightAware Transoceanic
Sun 02:57:00 PM 47.3021 -47.7717 260° West 463 533 43,000  Level FlightAware Transoceanic
Sun 02:58:00 PM 47.2786 -47.9583 259° West 463 533 43,000  Level FlightAware Transoceanic
Sun 02:59:00 PM 47.2547 -48.1448 259° West 463 533 43,000  Level FlightAware Transoceanic
Sun 03:00:00 PM 47.2306 -48.3311 259° West 463 533 43,000  Level FlightAware Transoceanic
Sun 03:01:00 PM 47.2062 -48.5173 259° West 463 533 43,000  Level FlightAware Transoceanic
Sun 03:02:00 PM 47.1815 -48.7032 259° West 463 533 43,000  Level FlightAware Transoceanic
Sun 03:03:00 PM 47.1564 -48.8890 259° West 463 533 43,000  Level FlightAware Transoceanic
Sun 03:04:00 PM 47.1311 -49.0746 259° West 463 533 43,000  Level FlightAware Transoceanic
Sun 03:05:00 PM 47.1055 -49.2601 258° West 463 533 43,000  Level FlightAware Transoceanic
Sun 03:06:00 PM 47.0796 -49.4453 258° West 463 533 43,000  Level FlightAware Transoceanic
Sun 03:07:00 PM 47.0533 -49.6304 258° West 463 533 43,000  Level FlightAware Transoceanic
Sun 03:08:00 PM 47.0268 -49.8153 258° West 463 533 43,000 526 Level FlightAware Transoceanic
Sun 03:09:00 PM 47.0014 -49.9903 258° West  Level FlightAware Approximate
Sun 03:10:00 PM 46.9757 -50.1651 258° West  Level FlightAware Approximate
Sun 03:10:48 PM 47.0000 -50.0000 259° West 416 479 45,000  Level ETMS Enhanced Traffic Management System
Sun 03:11:00 PM 46.9849 -50.1574 262° West  Level FlightAware Approximate
Sun 03:12:00 PM 46.9609 -50.3318 259° West  Level FlightAware Approximate
Sun 03:12:08 PM 46.9333 -50.3500 260° West 470 541 45,000  Level Gander Center
Sun 03:13:00 PM 46.9368 -50.5059 259° West  Level FlightAware Approximate
Sun 03:13:08 PM 46.9000 -50.5333 255° West 470 541 45,000  Level Gander Center
Sun 03:14:00 PM 46.9123 -50.6800 258° West  Level FlightAware Approximate
Sun 03:14:08 PM 46.8833 -50.7000 262° West 460 529 45,000  Level Gander Center
Sun 03:15:00 PM 46.8876 -50.8538 258° West  Level FlightAware Approximate
Sun 03:15:08 PM 46.8500 -50.8833 255° West 460 529 45,000  Level Gander Center
Sun 03:15:46 PM 46.8500 -51.0167 270° West 460 529 45,000  Level Moncton Center
Sun 03:16:00 PM 46.8795 -50.9071 259° West  Level FlightAware Approximate
Sun 03:16:46 PM 46.8333 -51.2000 262° West 470 541 45,000  Level Moncton Center
Sun 03:17:00 PM 46.8564 -51.0813 260° West  Level FlightAware Approximate
Sun 03:17:13 PM 46.8167 -51.2833 254° West 460 529 45,000  Level Gander Center
Sun 03:18:13 PM 46.8000 -51.4667 263° West 460 529 45,000  Level Gander Center
Sun 03:18:46 PM 46.7667 -51.5833 247° West 460 529 45,000  Level Moncton Center
Sun 03:19:13 PM 46.7667 -51.6333 270° West 460 529 45,000  Level Gander Center
Sun 03:20:13 PM 46.7333 -51.8167 255° West 460 529 45,000  Level Gander Center
Sun 03:20:46 PM 46.7333 -51.9333 270° West 460 529 45,000  Level Moncton Center
Sun 03:21:46 PM 46.7000 -52.1167 255° West 460 529 45,000  Level Moncton Center
Sun 03:22:46 PM 46.6833 -52.3000 263° West 460 529 45,000  Level Moncton Center
Sun 03:23:46 PM 46.6500 -52.4667 254° West 460 529 45,000  Level Moncton Center
Sun 03:24:46 PM 46.6167 -52.6500 255° West 460 529 45,000  Level Moncton Center
Sun 03:25:46 PM 46.6000 -52.8167 262° West 460 529 45,000  Level Moncton Center
Sun 03:26:13 PM 46.6000 -52.9167 270° West 460 529 45,000  Level Gander Center
Sun 03:27:13 PM 46.5667 -53.0833 254° West 450 518 45,000  Level Gander Center
Sun 03:27:46 PM 46.5500 -53.1833 256° West 450 518 45,000  Level Moncton Center
Sun 03:28:46 PM 46.5167 -53.3833 256° West 450 518 45,000  Level Moncton Center
Sun 03:29:13 PM 46.5167 -53.4333 270° West 450 518 45,000  Level Gander Center
Sun 03:30:13 PM 46.4833 -53.6333 256° West 450 518 45,000  Level Gander Center
Sun 03:30:46 PM 46.4667 -53.7333 256° West 450 518 45,000  Level Moncton Center
Sun 03:31:46 PM 46.4333 -53.9167 255° West 460 529 45,000  Level Moncton Center
Sun 03:32:46 PM 46.4000 -54.0833 254° West 460 529 45,000  Level Moncton Center
Sun 03:33:46 PM 46.3833 -54.2667 263° West 450 518 45,000  Level Moncton Center
Sun 03:34:46 PM 46.3500 -54.4333 254° West 450 518 45,000  Level Moncton Center
Sun 03:35:46 PM 46.3167 -54.6333 257° West 460 529 45,000  Level Moncton Center
Sun 03:36:46 PM 46.3000 -54.7833 261° West 460 529 45,000  Level Moncton Center
Sun 03:37:46 PM 46.2667 -54.9833 257° West 450 518 45,000  Level Moncton Center
Sun 03:38:46 PM 46.2500 -55.1667 263° West 450 518 45,000  Level Moncton Center
Sun 03:39:46 PM 46.2167 -55.3167 252° West 450 518 45,000  Level Moncton Center
Sun 03:40:46 PM 46.1833 -55.5167 257° West 450 518 45,000  Level Moncton Center
Sun 03:41:46 PM 46.1500 -55.6833 254° West 440 506 45,000  Level Moncton Center
Sun 03:42:46 PM 46.1167 -55.8667 255° West 440 506 45,000  Level Moncton Center
Sun 03:43:08 PM 46.1167 -55.9167 270° West 450 518 45,000  Level Gander Center
Sun 03:44:08 PM 46.0833 -56.1000 255° West 450 518 45,000 -184 Level Gander Center
Sun 03:44:46 PM 46.0667 -56.1833 254° West 470 541 44,700 -490 Descending Moncton Center
Sun 03:45:46 PM 46.0333 -56.3833 257° West 450 518 44,200 -512 Descending Moncton Center
Sun 03:46:08 PM 46.0167 -56.4500 250° West 440 506 44,000 -512 Descending Gander Center
Sun 03:47:08 PM 46.0000 -56.6000 261° West 430 495 43,500 -500 Descending Gander Center
Sun 03:48:08 PM 45.9667 -56.8000 257° West 450 518 43,000 -306 Descending Gander Center
Sun 03:48:46 PM 45.9500 -56.9000 257° West 450 518 43,000  Level Moncton Center
Sun 03:49:46 PM 45.9000 -57.0500 244° Southwest 450 518 43,000  Level Moncton Center
Sun 03:50:46 PM 45.8833 -57.2333 263° West 450 518 43,000  Level Moncton Center
Sun 03:51:08 PM 45.8667 -57.3000 250° West 450 518 43,000  Level Gander Center
Sun 03:51:46 PM 45.8500 -57.4333 260° West 450 518 43,000  Level Moncton Center
Sun 03:52:46 PM 45.8000 -57.5833 244° Southwest 450 518 43,000  Level Moncton Center
Sun 03:53:46 PM 45.7833 -57.7667 263° West 450 518 43,000  Level Moncton Center
Sun 03:54:46 PM 45.7333 -57.9167 245° Southwest 450 518 43,000  Level Moncton Center
Sun 03:55:46 PM 45.7167 -58.1167 263° West 440 506 43,000  Level Moncton Center
Sun 03:56:08 PM 45.7000 -58.1500 234° Southwest 440 506 43,000  Level Gander Center
Sun 03:56:46 PM 45.6667 -58.2667 248° West 440 506 43,000  Level Moncton Center
Sun 03:57:46 PM 45.6333 -58.4667 257° West 450 518 43,000  Level Moncton Center
Sun 03:58:08 PM 45.6333 -58.5167 270° West 440 506 43,000  Level Gander Center
Sun 03:58:46 PM 45.6167 -58.6000 254° West 440 506 43,000  Level Moncton Center
Sun 03:59:46 PM 45.5833 -58.7833 255° West 440 506 43,000  Level Moncton Center
Sun 04:00:46 PM 45.5500 -58.9500 254° West 450 518 43,000  Level Moncton Center
Sun 04:01:08 PM 45.5333 -59.0167 250° West 450 518 43,000  Level Gander Center
Sun 04:02:08 PM 45.4833 -59.1833 247° West 450 518 43,000  Level Gander Center
Sun 04:02:46 PM 45.4667 -59.2833 257° West 450 518 43,000  Level Moncton Center
Sun 04:03:46 PM 45.4333 -59.4667 256° West 440 506 43,000  Level Moncton Center
Sun 04:04:08 PM 45.4167 -59.5167 245° Southwest 440 506 43,000  Level Gander Center
Sun 04:04:46 PM 45.3833 -59.6333 248° West 440 506 43,000  Level Moncton Center
Sun 04:05:46 PM 45.3667 -59.8000 262° West 450 518 43,000  Level Moncton Center
Sun 04:06:46 PM 45.3167 -59.9667 247° West 450 518 43,000  Level Moncton Center
Sun 04:07:08 PM 45.3167 -60.0333 270° West 450 518 43,000  Level Gander Center
Sun 04:07:46 PM 45.3000 -60.1333 257° West 440 506 43,000  Level Moncton Center
Sun 04:08:46 PM 45.2500 -60.2833 245° Southwest 440 506 43,000  Level Moncton Center
Sun 04:09:46 PM 45.2167 -60.4500 254° West 420 483 43,000  Level Moncton Center
Sun 04:10:08 PM 45.2000 -60.5167 250° West 420 483 43,000  Level Gander Center
Sun 04:11:08 PM 45.1833 -60.6667 261° West 420 483 43,000  Level Gander Center
Sun 04:11:46 PM 45.1500 -60.7667 245° Southwest 420 483 43,000  Level Moncton Center
Sun 04:12:46 PM 45.1167 -60.9333 254° West 430 495 43,000  Level Moncton Center
Sun 04:13:08 PM 45.1000 -61.0000 251° West 430 495 43,000  Level Gander Center
Sun 04:14:08 PM 45.0667 -61.1667 254° West 430 495 43,000  Level Gander Center
Sun 04:14:46 PM 45.0500 -61.2500 254° West 430 495 43,000  Level Moncton Center
Sun 04:15:46 PM 45.0000 -61.4167 247° West 430 495 43,000  Level Moncton Center
Sun 04:16:46 PM 44.9667 -61.5833 254° West 440 506 43,000  Level Moncton Center
Sun 04:17:46 PM 44.9167 -61.7500 247° West 430 495 43,000  Level Moncton Center
Sun 04:18:46 PM 44.9000 -61.9000 261° West 430 495 43,000  Level Moncton Center
Sun 04:19:46 PM 44.8500 -62.0667 247° West 430 495 43,000  Level Moncton Center
Sun 04:20:46 PM 44.8167 -62.2333 254° West 430 495 43,000  Level Moncton Center
Sun 04:21:46 PM 44.7667 -62.4000 247° West 430 495 43,000  Level Moncton Center
Sun 04:22:46 PM 44.7333 -62.5667 254° West 430 495 43,000  Level Moncton Center
Sun 04:23:46 PM 44.7000 -62.7000 251° West 430 495 43,000  Level Moncton Center
Sun 04:24:46 PM 44.6667 -62.8667 254° West 430 495 43,000  Level Moncton Center
Sun 04:25:46 PM 44.6167 -63.0333 247° West 430 495 43,000  Level Moncton Center
Sun 04:26:46 PM 44.5833 -63.1833 253° West 420 483 43,000  Level Moncton Center
Sun 04:27:46 PM 44.5500 -63.3333 253° West 420 483 43,000  Level Moncton Center
Sun 04:28:46 PM 44.5000 -63.4833 245° Southwest 420 483 43,000  Level Moncton Center
Sun 04:29:46 PM 44.4667 -63.6500 254° West 420 483 43,000  Level Moncton Center
Sun 04:30:46 PM 44.4167 -63.8167 247° West 420 483 43,000  Level Moncton Center
Sun 04:31:46 PM 44.3833 -63.9500 251° West 420 483 43,000  Level Moncton Center
Sun 04:32:46 PM 44.3333 -64.1167 247° West 420 483 43,000  Level Moncton Center
Sun 04:33:46 PM 44.3000 -64.2500 251° West 420 483 43,000  Level Moncton Center
Sun 04:34:46 PM 44.2667 -64.4167 254° West 420 483 43,000  Level Moncton Center
Sun 04:35:46 PM 44.2167 -64.5667 245° Southwest 420 483 43,000  Level Moncton Center
Sun 04:36:08 PM 44.2167 -64.6333 270° West 420 483 43,000  Level Gander Center
Sun 04:36:46 PM 44.1833 -64.7167 241° Southwest 420 483 43,000  Level Moncton Center
Sun 04:37:46 PM 44.1333 -64.8833 247° West 420 483 43,000  Level Moncton Center
Sun 04:38:46 PM 44.1000 -65.0333 253° West 420 483 43,000  Level Moncton Center
Sun 04:39:46 PM 44.0667 -65.1667 251° West 420 483 43,000  Level Moncton Center
Sun 04:40:46 PM 44.0167 -65.3333 247° West 420 483 43,000  Level Moncton Center
Sun 04:41:46 PM 43.9833 -65.4833 253° West 420 483 43,000  Level Moncton Center
Sun 04:42:46 PM 43.9333 -65.6333 245° Southwest 420 483 43,000  Level Moncton Center
Sun 04:43:46 PM 43.9000 -65.7833 253° West 420 483 43,000  Level Moncton Center
Sun 04:44:46 PM 43.8667 -65.9333 253° West 420 483 43,000  Level Moncton Center
Sun 04:45:46 PM 43.8000 -66.0833 238° Southwest 430 495 43,000  Level Moncton Center
Sun 04:46:46 PM 43.7667 -66.2500 255° West 430 495 43,000  Level Moncton Center
Sun 04:47:46 PM 43.7167 -66.4167 248° West 430 495 43,000  Level Moncton Center
Sun 04:48:46 PM 43.6833 -66.5500 251° West 430 495 43,000  Level Moncton Center
Sun 04:49:46 PM 43.6333 -66.7000 245° Southwest 430 495 43,000  Level Moncton Center
Sun 04:50:46 PM 43.5833 -66.8667 248° West 430 495 43,000  Level Moncton Center
Sun 04:51:46 PM 43.5500 -67.0333 255° West 430 495 43,000  Level Moncton Center
Sun 04:52:38 PM 43.5278 -67.1325 253° West 426 490 43,000  Level Boston Center
Sun 04:53:38 PM 43.4844 -67.2822 248° West 426 490 43,000  Level Boston Center
Sun 04:54:38 PM 43.4411 -67.4347 249° West 426 490 43,000  Level Boston Center
Sun 04:55:38 PM 43.4017 -67.5839 250° West 426 490 43,000 -650 Level Boston Center
Sun 04:56:38 PM 43.3558 -67.7333 247° West 421 484 41,700 -1,500 Descending Boston Center
Sun 04:57:38 PM 43.3178 -67.8706 249° West 411 473 40,000 -1,700 Descending Boston Center
Sun 04:58:38 PM 43.2833 -68.0014 250° West 387 445 38,300 -1,700 Descending Boston Center
Sun 04:59:38 PM 43.2425 -68.1356 247° West 381 438 36,600 -1,750 Descending Boston Center
Sun 05:00:38 PM 43.2039 -68.2750 249° West 386 444 34,800 -1,800 Descending Boston Center
Sun 05:01:38 PM 43.1608 -68.4119 247° West 386 444 33,000 -1,850 Descending Boston Center
Sun 05:02:38 PM 43.1178 -68.5542 248° West 398 458 31,100 -1,900 Descending Boston Center
Sun 05:03:38 PM 43.0767 -68.6933 248° West 398 458 29,200 -1,950 Descending Boston Center
Sun 05:04:38 PM 43.0311 -68.8381 247° West 403 464 27,200 -2,000 Descending Boston Center
Sun 05:05:38 PM 42.9917 -68.9711 248° West 398 458 25,200 -2,100 Descending Boston Center
Sun 05:06:38 PM 42.9536 -69.0981 248° West 383 441 23,000 -2,200 Descending Boston Center
Sun 05:07:38 PM 42.9136 -69.2278 247° West 377 434 20,800 -2,200 Descending Boston Center
Sun 05:08:38 PM 42.8733 -69.3575 247° West 377 434 18,600 -2,550 Descending Boston Center
Sun 05:09:38 PM 42.8333 -69.4983 249° West 377 434 15,700 -2,450 Descending Boston Center
Sun 05:10:38 PM 42.7947 -69.6217 247° West 371 427 13,700 -1,800 Descending Boston Center
Sun 05:11:38 PM 42.7581 -69.7422 248° West 366 421 12,100 -1,250 Descending Boston Center
Sun 05:12:38 PM 42.7214 -69.8625 247° West 353 406 11,200 -550 Descending Boston Center
Sun 05:13:38 PM 42.6822 -69.9828 246° West 348 400 11,000 -100 Descending Boston Center
Sun 05:14:38 PM 42.6472 -70.1028 248° West 348 400 11,000  Level Boston Center
Sun 05:15:38 PM 42.6100 -70.2228 247° West 348 400 11,000  Level Boston Center
Sun 05:16:38 PM 42.5833 -70.3450 254° West 348 400 11,000 -150 Level Boston Center
Sun 05:17:38 PM 42.5772 -70.4692 266° West 335 386 10,700 -750 Descending Boston Center
Sun 05:18:38 PM 42.6058 -70.5586 294° West 304 350 9,500 -1,650 Descending Boston Center
Sun 05:19:38 PM 42.6283 -70.6594 287° West 264 304 7,400 -2,050 Descending Boston Center
Sun 05:20:38 PM 42.6256 -70.7500 268° West 247 284 5,400 -1,900 Descending Boston Center
Sun 05:21:38 PM 42.6186 -70.8461 264° West 254 292 3,600 -1,516 Descending Boston Center
Sun 05:22:13 PM 42.6167 -70.8833 266° West 244 281 3,000 -387 Descending KA90
Sun 05:23:11 PM 42.6167 -70.9833 270° West 214 246 3,000 -407 Level KA90
Sun 05:24:11 PM 42.6000 -71.0500 251° West 208 239 2,200 -496 Descending KA90
Sun 05:25:12 PM 42.5500 -71.0500 180° South 196 226 2,000 -97 Descending KA90
Sun 05:26:15 PM 42.5000 -71.0500 180° South 184 212 2,000  Level KA90
Sun 05:27:16 PM 42.4667 -71.0833 216° Southwest 163 188 2,000  Level KA90
Sun 05:28:11 PM 42.4500 -71.1333 246° West 154 177 2,000 -298 Level KA90
Sun 05:29:17 PM 42.4667 -71.1833 294° West 110 127 1,400 -567 Descending KA90
Sun 05:30:18 PM 42.4667 -71.2333 270° West 106 122 800 -590 Descending KA90
Sun 05:32:00 PM 42.4667 -71.2833 238° Southwest  Level FlightAware Approximate
Sun 05:39:00 PM 42.4699 -71.2890 238° Southwest  Level Estimated

Login

Don't have an account? Register now (free) for customized features, flight alerts, and more!